Terminal Aerodrome Forecast
Issued by NWS Cleveland, OH

Home | Current Version | Previous Version | Text Only | Print | Product List | Glossary On
Versions: 1 2 3 4 5 6 7 8 9 10 11 12 13 14 15 16 17 18 19
000
FTUS41 KCLE 280529
TAFTOL
TAF
KTOL 280529Z 2806/2906 30004KT P6SM SCT250
      TEMPO 2806/2810 5SM BR
     FM281000 33003KT 5SM BR SKC
     FM281300 04006KT P6SM FEW035
     FM281800 08008KT P6SM FEW040
     FM290000 09005KT P6SM FEW060=

USA.gov is the U.S. government's official web portal to all federal, state and local government web resources and services.